createdAt,value
2018-06-16T00:00:10.627Z,1011.05
2018-06-16T00:01:19.286Z,1011.06
2018-06-16T00:02:28.962Z,1011.05
2018-06-16T00:03:38.429Z,1011.07
2018-06-16T00:04:47.839Z,1011.09
2018-06-16T00:05:57.778Z,1011.11
2018-06-16T00:07:07.205Z,1011.12
2018-06-16T00:08:17.143Z,1011.11
2018-06-16T00:09:26.323Z,1011.1
2018-06-16T00:10:35.766Z,1011.1
2018-06-16T00:11:45.483Z,1011.12
2018-06-16T00:12:54.899Z,1011.12
2018-06-16T00:14:04.104Z,1011.13
2018-06-16T00:15:13.783Z,1011.17
2018-06-16T00:16:22.695Z,1011.15
2018-06-16T00:17:32.151Z,1011.18
2018-06-16T00:18:41.324Z,1011.18
2018-06-16T00:19:51.016Z,1011.19
2018-06-16T00:21:00.451Z,1011.18
2018-06-16T00:22:10.133Z,1011.18
2018-06-16T00:23:19.340Z,1011.19
2018-06-16T00:24:28.496Z,1011.17
2018-06-16T00:25:37.658Z,1011.2
2018-06-16T00:26:46.561Z,1011.17
2018-06-16T00:27:56.528Z,1011.18
2018-06-16T00:29:05.515Z,1011.18
2018-06-16T00:30:14.927Z,1011.2
2018-06-16T00:31:23.587Z,1011.2
2018-06-16T00:32:33.260Z,1011.12
2018-06-16T00:33:42.668Z,1011.09
2018-06-16T00:34:52.095Z,1011.1
2018-06-16T00:36:01.786Z,1011.05
2018-06-16T00:37:10.740Z,1011.04
2018-06-16T00:38:20.448Z,1011.04
2018-06-16T00:39:30.013Z,1011.04
2018-06-16T00:40:39.211Z,1011.04
2018-06-16T00:41:48.702Z,1011.01
2018-06-16T00:42:58.128Z,1011.02
2018-06-16T00:44:07.917Z,1011.02
2018-06-16T00:45:17.502Z,1011.01
2018-06-16T00:46:26.748Z,1011
2018-06-16T00:47:36.613Z,1010.96
2018-06-16T00:48:45.803Z,1010.98
2018-06-16T00:49:55.216Z,1010.94
2018-06-16T00:51:04.129Z,1010.96
2018-06-16T00:52:13.291Z,1010.92
2018-06-16T00:53:22.451Z,1010.95
2018-06-16T00:54:31.855Z,1011
2018-06-16T00:55:41.534Z,1010.96
2018-06-16T00:56:50.978Z,1011
2018-06-16T00:58:00.388Z,1010.98
2018-06-16T00:59:09.852Z,1010.97
2018-06-16T01:00:19.261Z,1010.95
2018-06-16T01:01:28.955Z,1010.99
2018-06-16T01:02:37.884Z,1010.97
2018-06-16T01:03:47.832Z,1010.97
2018-06-16T01:04:57.522Z,1010.96
2018-06-16T01:06:06.940Z,1010.97
2018-06-16T01:07:15.856Z,1010.98
2018-06-16T01:08:25.284Z,1011.02
2018-06-16T01:09:34.213Z,1010.93
2018-06-16T01:10:43.887Z,1010.97
2018-06-16T01:11:53.304Z,1010.94
2018-06-16T01:13:02.713Z,1010.95
2018-06-16T01:14:11.696Z,1010.98
2018-06-16T01:15:20.869Z,1010.98
2018-06-16T01:16:30.316Z,1010.98
2018-06-16T01:17:39.767Z,1010.98
2018-06-16T01:18:49.461Z,1011
2018-06-16T01:19:59.147Z,1010.96
2018-06-16T01:21:08.829Z,1011.02
2018-06-16T01:22:18.305Z,1011.04
2018-06-16T01:23:27.490Z,1011.05
2018-06-16T01:24:36.958Z,1011.06
2018-06-16T01:25:46.409Z,1011.07
2018-06-16T01:26:56.126Z,1011.05
2018-06-16T01:28:05.799Z,1011.03
2018-06-16T01:29:15.759Z,1011.03
2018-06-16T01:30:25.182Z,1011.05
2018-06-16T01:31:34.602Z,1011.01
2018-06-16T01:32:43.775Z,1011.01
2018-06-16T01:33:53.735Z,1011
2018-06-16T01:35:02.659Z,1011.06
2018-06-16T01:36:12.098Z,1011.03
2018-06-16T01:37:20.767Z,1011
2018-06-16T01:38:30.480Z,1011.01
2018-06-16T01:39:39.662Z,1011.02
2018-06-16T01:40:48.847Z,1010.98
2018-06-16T01:41:58.028Z,1010.98
2018-06-16T01:43:07.213Z,1010.98
2018-06-16T01:44:16.648Z,1010.96
2018-06-16T01:45:26.315Z,1010.94
2018-06-16T01:46:35.217Z,1010.96
2018-06-16T01:47:44.953Z,1010.96
2018-06-16T01:48:53.869Z,1010.96
2018-06-16T01:50:03.024Z,1010.95
2018-06-16T01:51:12.187Z,1010.97
2018-06-16T01:52:21.614Z,1010.98
2018-06-16T01:53:31.049Z,1010.98
2018-06-16T01:54:40.200Z,1010.98
2018-06-16T01:55:49.897Z,1010.96
2018-06-16T01:56:59.574Z,1010.99
2018-06-16T01:58:09.264Z,1010.95
2018-06-16T01:59:17.908Z,1010.89
2018-06-16T02:00:27.650Z,1010.92
2018-06-16T02:01:36.566Z,1010.94
2018-06-16T02:02:45.746Z,1010.92
2018-06-16T02:03:55.179Z,1010.93
2018-06-16T02:05:04.606Z,1010.96
2018-06-16T02:06:14.018Z,1010.99
2018-06-16T02:07:23.451Z,1011.01
2018-06-16T02:08:32.894Z,1010.98
2018-06-16T02:09:42.062Z,1010.98
2018-06-16T02:10:51.230Z,1010.99
2018-06-16T02:12:00.658Z,1011
2018-06-16T02:13:09.862Z,1010.99
2018-06-16T02:14:19.804Z,1010.97
2018-06-16T02:15:29.476Z,1010.98
2018-06-16T02:16:39.162Z,1010.98
2018-06-16T02:17:48.847Z,1011.02
2018-06-16T02:18:58.554Z,1011.02
2018-06-16T02:20:08.501Z,1011
2018-06-16T02:21:17.927Z,1011.03
2018-06-16T02:22:26.849Z,1011.01
2018-06-16T02:23:36.002Z,1010.98
2018-06-16T02:24:45.458Z,1011
2018-06-16T02:25:54.630Z,1011.02
2018-06-16T02:27:04.345Z,1011.03
2018-06-16T02:28:14.033Z,1011.02
2018-06-16T02:29:23.480Z,1011.01
2018-06-16T02:30:32.905Z,1011.03
2018-06-16T02:31:42.595Z,1011.05
2018-06-16T02:32:52.022Z,1011.08
2018-06-16T02:34:01.453Z,1011.04
2018-06-16T02:35:10.866Z,1011.03
2018-06-16T02:36:20.293Z,1011.05
2018-06-16T02:37:30.016Z,1011.04
2018-06-16T02:38:39.558Z,1011.03
2018-06-16T02:39:48.982Z,1011.03
2018-06-16T02:40:58.666Z,1011.09
2018-06-16T02:42:08.357Z,1011.1
2018-06-16T02:43:17.792Z,1011.13
2018-06-16T02:44:27.239Z,1011.13
2018-06-16T02:45:36.664Z,1011.12
2018-06-16T02:46:46.353Z,1011.08
2018-06-16T02:47:55.794Z,1011.09
2018-06-16T02:49:04.967Z,1011.06
2018-06-16T02:50:14.811Z,1011.07
2018-06-16T02:51:25.142Z,1011.12
2018-06-16T02:52:34.617Z,1011.08
2018-06-16T02:53:43.842Z,1011.1
2018-06-16T02:54:53.017Z,1011.14
2018-06-16T02:56:02.214Z,1011.09
2018-06-16T02:57:12.172Z,1011.08
2018-06-16T02:58:21.096Z,1011.1
2018-06-16T02:59:30.529Z,1011.06
2018-06-16T03:00:40.227Z,1011.06
2018-06-16T03:01:49.688Z,1011.06
2018-06-16T03:02:59.672Z,1011.06
2018-06-16T03:04:09.635Z,1011.07
2018-06-16T03:05:18.803Z,1011.04
2018-06-16T03:06:28.774Z,1011.06
2018-06-16T03:07:38.478Z,1011.02
2018-06-16T03:08:47.935Z,1011.03
2018-06-16T03:09:57.371Z,1011.04
2018-06-16T03:11:06.806Z,1010.96
2018-06-16T03:12:16.490Z,1010.97
2018-06-16T03:13:25.940Z,1010.96
2018-06-16T03:14:35.638Z,1011
2018-06-16T03:15:45.600Z,1010.97
2018-06-16T03:16:55.040Z,1010.94
2018-06-16T03:18:04.202Z,1010.95
2018-06-16T03:19:13.878Z,1010.96
2018-06-16T03:20:23.317Z,1010.93
2018-06-16T03:21:32.280Z,1010.92
2018-06-16T03:22:41.200Z,1011
2018-06-16T03:23:50.627Z,1011.02
2018-06-16T03:25:00.050Z,1010.97
2018-06-16T03:26:09.476Z,1010.99
2018-06-16T03:27:19.188Z,1010.97
2018-06-16T03:28:28.359Z,1011.03
2018-06-16T03:29:38.050Z,1011.03
2018-06-16T03:30:47.203Z,1011.05
2018-06-16T03:31:57.160Z,1011.06
2018-06-16T03:33:06.848Z,1011.03
2018-06-16T03:34:16.274Z,1011.02
2018-06-16T03:35:25.440Z,1011.03
2018-06-16T03:36:34.878Z,1011.06
2018-06-16T03:37:44.047Z,1011.04
2018-06-16T03:38:53.215Z,1011.03
2018-06-16T03:40:02.891Z,1011.01
2018-06-16T03:41:12.077Z,1011.03
2018-06-16T03:42:21.244Z,1011.04
2018-06-16T03:43:30.709Z,1011.02
2018-06-16T03:44:39.880Z,1011.02
2018-06-16T03:45:49.301Z,1011.03
2018-06-16T03:46:58.727Z,1011.02
2018-06-16T03:48:08.466Z,1011.02
2018-06-16T03:49:17.379Z,1011.07
2018-06-16T03:50:26.614Z,1011.03
2018-06-16T03:51:36.050Z,1011.04
2018-06-16T03:52:44.959Z,1011
2018-06-16T03:53:54.141Z,1011.06
2018-06-16T03:55:03.834Z,1011.03
2018-06-16T03:56:13.251Z,1011.01
2018-06-16T03:57:22.683Z,1010.99
2018-06-16T03:58:32.447Z,1010.99
2018-06-16T03:59:42.140Z,1010.99
2018-06-16T04:00:51.301Z,1011.01
2018-06-16T04:02:01.017Z,1011.01
2018-06-16T04:03:10.443Z,1011
2018-06-16T04:04:19.604Z,1011.03
2018-06-16T04:05:28.521Z,1011.01
2018-06-16T04:06:37.697Z,1011.04
2018-06-16T04:07:47.202Z,1011
2018-06-16T04:08:56.410Z,1011
2018-06-16T04:10:05.842Z,1011.04
2018-06-16T04:11:15.269Z,1010.95
2018-06-16T04:12:24.969Z,1010.96
2018-06-16T04:13:34.671Z,1010.96
2018-06-16T04:14:43.899Z,1010.98
2018-06-16T04:15:53.842Z,1010.96
2018-06-16T04:17:03.838Z,1010.96
2018-06-16T04:18:13.270Z,1010.94
2018-06-16T04:19:22.439Z,1010.95
2018-06-16T04:20:31.611Z,1010.92
2018-06-16T04:21:41.059Z,1010.95
2018-06-16T04:22:50.738Z,1010.94
2018-06-16T04:24:00.278Z,1010.96
2018-06-16T04:25:09.998Z,1010.97
2018-06-16T04:26:19.174Z,1011
2018-06-16T04:27:28.591Z,1011.01
2018-06-16T04:28:38.031Z,1011.03
2018-06-16T04:29:46.714Z,1011.02
2018-06-16T04:30:55.891Z,1011.02
2018-06-16T04:32:05.319Z,1011.03
2018-06-16T04:33:14.774Z,1011.04
2018-06-16T04:34:23.913Z,1011.02
2018-06-16T04:35:33.343Z,1011.03
2018-06-16T04:36:42.522Z,1011.03
2018-06-16T04:37:51.953Z,1011.01
2018-06-16T04:39:01.393Z,1011.04
2018-06-16T04:40:10.602Z,1011.01
2018-06-16T04:41:19.261Z,1011.01
2018-06-16T04:42:29.208Z,1010.99
2018-06-16T04:43:38.629Z,1011.02
2018-06-16T04:44:47.633Z,1011
2018-06-16T04:45:57.066Z,1010.99
2018-06-16T04:47:06.495Z,1011.02
2018-06-16T04:48:15.696Z,1011.01
2018-06-16T04:49:25.126Z,1011.03
2018-06-16T04:50:34.071Z,1011.02
2018-06-16T04:51:43.827Z,1011.03
2018-06-16T04:52:53.547Z,1011.05
2018-06-16T04:54:02.712Z,1011.06
2018-06-16T04:55:11.881Z,1011.06
2018-06-16T04:56:21.555Z,1011.02
2018-06-16T04:57:31.252Z,1011.07
2018-06-16T04:58:41.217Z,1011.08
2018-06-16T04:59:50.641Z,1011.01
2018-06-16T05:01:00.373Z,1011.05
2018-06-16T05:02:09.542Z,1011.02
2018-06-16T05:03:18.961Z,1011.01
2018-06-16T05:04:28.637Z,1011.03
2018-06-16T05:05:38.327Z,1011.01
2018-06-16T05:06:48.004Z,1011.02
2018-06-16T05:07:57.697Z,1011.01
2018-06-16T05:09:07.123Z,1011.01
2018-06-16T05:10:16.844Z,1011.01
2018-06-16T05:11:25.766Z,1010.99
2018-06-16T05:12:35.480Z,1011
2018-06-16T05:13:45.158Z,1010.98
2018-06-16T05:14:55.104Z,1010.96
2018-06-16T05:16:04.573Z,1010.96
2018-06-16T05:17:13.735Z,1010.95
2018-06-16T05:18:23.454Z,1010.94
2018-06-16T05:19:32.636Z,1010.96
2018-06-16T05:20:42.077Z,1010.95
2018-06-16T05:21:51.512Z,1010.97
2018-06-16T05:23:01.489Z,1010.97
2018-06-16T05:24:11.250Z,1010.98
2018-06-16T05:25:20.713Z,1010.99
2018-06-16T05:26:30.428Z,1011
2018-06-16T05:27:39.358Z,1011.04
2018-06-16T05:28:48.792Z,1011.06
2018-06-16T05:29:58.473Z,1011.06
2018-06-16T05:31:07.643Z,1011.08
2018-06-16T05:32:17.075Z,1011.11
2018-06-16T05:33:26.769Z,1011.11
2018-06-16T05:34:36.462Z,1011.14
2018-06-16T05:35:45.641Z,1011.11
2018-06-16T05:36:54.800Z,1011.14
2018-06-16T05:38:04.224Z,1011.09
2018-06-16T05:39:13.654Z,1011.06
2018-06-16T05:40:22.836Z,1011.14
2018-06-16T05:41:31.777Z,1011.16
2018-06-16T05:42:40.950Z,1011.16
2018-06-16T05:43:50.376Z,1011.15
2018-06-16T05:44:59.551Z,1011.16
2018-06-16T05:46:08.735Z,1011.12
2018-06-16T05:47:17.893Z,1011.14
2018-06-16T05:48:27.085Z,1011.12
2018-06-16T05:49:36.045Z,1011.18
2018-06-16T05:50:45.487Z,1011.17
2018-06-16T05:51:54.921Z,1011.2
2018-06-16T05:53:04.363Z,1011.19
2018-06-16T05:54:13.559Z,1011.22
2018-06-16T05:55:22.775Z,1011.28
2018-06-16T05:56:32.265Z,1011.27
2018-06-16T05:57:41.707Z,1011.23
2018-06-16T05:58:50.913Z,1011.24
2018-06-16T06:00:00.876Z,1011.22
2018-06-16T06:01:09.812Z,1011.18
2018-06-16T06:02:19.238Z,1011.2
2018-06-16T06:03:28.691Z,1011.22
2018-06-16T06:04:38.359Z,1011.22
2018-06-16T06:05:47.809Z,1011.22
2018-06-16T06:06:57.275Z,1011.23
2018-06-16T06:08:06.440Z,1011.26
2018-06-16T06:09:15.603Z,1011.3
2018-06-16T06:10:25.396Z,1011.29
2018-06-16T06:11:35.780Z,1011.24
2018-06-16T06:12:45.746Z,1011.25
2018-06-16T06:13:54.667Z,1011.29
2018-06-16T06:15:03.577Z,1011.34
2018-06-16T06:16:12.760Z,1011.33
2018-06-16T06:17:22.182Z,1011.32
2018-06-16T06:18:32.116Z,1011.38
2018-06-16T06:19:41.551Z,1011.34
2018-06-16T06:20:50.732Z,1011.39
2018-06-16T06:21:59.934Z,1011.36
2018-06-16T06:23:09.368Z,1011.36
2018-06-16T06:24:19.111Z,1011.35
2018-06-16T06:25:28.807Z,1011.35
2018-06-16T06:26:38.802Z,1011.32
2018-06-16T06:27:48.492Z,1011.32
2018-06-16T06:28:58.252Z,1011.32
2018-06-16T06:30:07.711Z,1011.32
2018-06-16T06:31:17.157Z,1011.35
2018-06-16T06:32:26.679Z,1011.37
2018-06-16T06:33:36.492Z,1011.38
2018-06-16T06:34:46.182Z,1011.36
2018-06-16T06:35:55.867Z,1011.36
2018-06-16T06:37:05.890Z,1011.28
2018-06-16T06:38:15.727Z,1011.31
2018-06-16T06:39:24.918Z,1011.3
2018-06-16T06:40:34.115Z,1011.31
2018-06-16T06:41:43.541Z,1011.31
2018-06-16T06:42:53.249Z,1011.32
2018-06-16T06:44:02.688Z,1011.33
2018-06-16T06:45:12.188Z,1011.35
2018-06-16T06:46:22.117Z,1011.34
2018-06-16T06:47:31.294Z,1011.32
2018-06-16T06:48:40.500Z,1011.33
2018-06-16T06:49:50.306Z,1011.35
2018-06-16T06:50:59.796Z,1011.34
2018-06-16T06:52:09.038Z,1011.41
2018-06-16T06:53:17.947Z,1011.42
2018-06-16T06:54:27.113Z,1011.38
2018-06-16T06:55:36.540Z,1011.38
2018-06-16T06:56:45.719Z,1011.32
2018-06-16T06:57:55.147Z,1011.36
2018-06-16T06:59:04.927Z,1011.33
2018-06-16T07:00:14.131Z,1011.29
2018-06-16T07:01:24.087Z,1011.31
2018-06-16T07:02:33.840Z,1011.29
2018-06-16T07:03:43.036Z,1011.32
2018-06-16T07:04:52.197Z,1011.29
2018-06-16T07:06:01.627Z,1011.29
2018-06-16T07:07:10.880Z,1011.28
2018-06-16T07:08:20.574Z,1011.31
2018-06-16T07:09:30.108Z,1011.33
2018-06-16T07:10:39.476Z,1011.33
2018-06-16T07:11:49.572Z,1011.32
2018-06-16T07:12:59.028Z,1011.31
2018-06-16T07:14:08.198Z,1011.3
2018-06-16T07:15:17.711Z,1011.31
2018-06-16T07:16:26.885Z,1011.29
2018-06-16T07:17:36.317Z,1011.27
2018-06-16T07:18:45.498Z,1011.28
2018-06-16T07:19:54.431Z,1011.29
2018-06-16T07:21:03.613Z,1011.26
2018-06-16T07:22:13.030Z,1011.26
2018-06-16T07:23:22.737Z,1011.26
2018-06-16T07:24:32.808Z,1011.25
2018-06-16T07:25:42.499Z,1011.27
2018-06-16T07:26:51.928Z,1011.25
2018-06-16T07:28:00.864Z,1011.23
2018-06-16T07:29:10.322Z,1011.25
2018-06-16T07:30:20.615Z,1011.27
2018-06-16T07:31:30.308Z,1011.25
2018-06-16T07:32:39.225Z,1011.28
2018-06-16T07:33:48.639Z,1011.25
2018-06-16T07:34:57.536Z,1011.26
2018-06-16T07:36:06.256Z,1011.27
2018-06-16T07:37:16.140Z,1011.24
2018-06-16T07:38:25.591Z,1011.26
2018-06-16T07:39:35.006Z,1011.29
2018-06-16T07:40:44.441Z,1011.31
2018-06-16T07:41:54.151Z,1011.3
2018-06-16T07:43:03.107Z,1011.31
2018-06-16T07:44:12.522Z,1011.26
2018-06-16T07:45:21.952Z,1011.28
2018-06-16T07:46:31.646Z,1011.29
2018-06-16T07:47:41.082Z,1011.3
2018-06-16T07:48:50.344Z,1011.26
2018-06-16T07:49:59.265Z,1011.27
2018-06-16T07:51:08.674Z,1011.28
2018-06-16T07:52:18.104Z,1011.24
2018-06-16T07:53:27.577Z,1011.24
2018-06-16T07:54:36.756Z,1011.2
2018-06-16T07:55:46.474Z,1011.22
2018-06-16T07:56:56.153Z,1011.18
2018-06-16T07:58:05.337Z,1011.19
2018-06-16T07:59:14.816Z,1011.2
2018-06-16T08:00:23.989Z,1011.17
2018-06-16T08:01:33.423Z,1011.22
2018-06-16T08:02:43.175Z,1011.18
2018-06-16T08:03:53.008Z,1011.2
2018-06-16T08:05:02.208Z,1011.21
2018-06-16T08:06:11.420Z,1011.18
2018-06-16T08:07:21.110Z,1011.21
2018-06-16T08:08:30.293Z,1011.22
2018-06-16T08:09:39.457Z,1011.2
2018-06-16T08:10:48.630Z,1011.23
2018-06-16T08:11:58.103Z,1011.24
2018-06-16T08:13:07.324Z,1011.22
2018-06-16T08:14:16.738Z,1011.2
2018-06-16T08:15:26.181Z,1011.23
2018-06-16T08:16:35.349Z,1011.22
2018-06-16T08:17:45.049Z,1011.21
2018-06-16T08:18:54.468Z,1011.24
2018-06-16T08:20:03.640Z,1011.26
2018-06-16T08:21:12.805Z,1011.22
2018-06-16T08:22:22.505Z,1011.27
2018-06-16T08:23:32.467Z,1011.23
2018-06-16T08:24:42.159Z,1011.21
2018-06-16T08:25:51.855Z,1011.23
2018-06-16T08:27:01.598Z,1011.2
2018-06-16T08:28:10.530Z,1011.2
2018-06-16T08:29:19.442Z,1011.22
2018-06-16T08:30:28.890Z,1011.21
2018-06-16T08:31:38.342Z,1011.22
2018-06-16T08:32:47.517Z,1011.18
2018-06-16T08:33:57.130Z,1011.18
2018-06-16T08:35:06.900Z,1011.2
2018-06-16T08:36:16.343Z,1011.17
2018-06-16T08:37:25.763Z,1011.19
2018-06-16T08:38:35.453Z,1011.2
2018-06-16T08:39:44.899Z,1011.21
2018-06-16T08:40:54.361Z,1011.22
2018-06-16T08:42:03.280Z,1011.17
2018-06-16T08:43:12.263Z,1011.19
2018-06-16T08:44:22.518Z,1011.21
2018-06-16T08:45:32.220Z,1011.19
2018-06-16T08:46:41.401Z,1011.18
2018-06-16T08:47:50.848Z,1011.18
2018-06-16T08:48:59.842Z,1011.13
2018-06-16T08:50:08.741Z,1011.16
2018-06-16T08:51:18.166Z,1011.2
2018-06-16T08:52:27.622Z,1011.19
2018-06-16T08:53:36.805Z,1011.18
2018-06-16T08:54:46.229Z,1011.19
2018-06-16T08:55:55.412Z,1011.18
2018-06-16T08:57:04.886Z,1011.15
2018-06-16T08:58:13.823Z,1011.17
2018-06-16T08:59:23.057Z,1011.14
2018-06-16T09:00:32.531Z,1011.13
2018-06-16T09:01:42.227Z,1011.14
2018-06-16T09:02:51.412Z,1011.12
2018-06-16T09:04:00.837Z,1011.14
2018-06-16T09:05:10.044Z,1011.12
2018-06-16T09:06:19.486Z,1011.11
2018-06-16T09:07:29.170Z,1011.11
2018-06-16T09:08:38.089Z,1011.1
2018-06-16T09:09:47.790Z,1011.11
2018-06-16T09:10:57.231Z,1011.13
2018-06-16T09:12:06.910Z,1011.12
2018-06-16T09:13:16.597Z,1011.08
2018-06-16T09:14:25.524Z,1011.11
2018-06-16T09:15:34.714Z,1011.07
2018-06-16T09:16:43.653Z,1011.07
2018-06-16T09:17:53.377Z,1011.06
2018-06-16T09:19:02.578Z,1011.06
2018-06-16T09:20:11.750Z,1011.05
2018-06-16T09:21:21.231Z,1011.04
2018-06-16T09:22:30.438Z,1011.04
2018-06-16T09:23:39.700Z,1011.03
2018-06-16T09:24:48.858Z,1011.03
2018-06-16T09:25:58.280Z,1011.02
2018-06-16T09:27:07.454Z,1011.03
2018-06-16T09:28:17.161Z,1011
2018-06-16T09:29:26.842Z,1010.97
2018-06-16T09:30:36.014Z,1010.99
2018-06-16T09:31:45.704Z,1010.99
2018-06-16T09:32:55.296Z,1010.98
2018-06-16T09:34:03.958Z,1010.99
2018-06-16T09:35:12.868Z,1010.91
2018-06-16T09:36:22.293Z,1010.96
2018-06-16T09:37:31.526Z,1010.91
2018-06-16T09:38:40.993Z,1010.92
2018-06-16T09:39:50.431Z,1010.92
2018-06-16T09:40:59.605Z,1010.92
2018-06-16T09:42:08.846Z,1010.91
2018-06-16T09:43:17.751Z,1010.9
2018-06-16T09:44:26.699Z,1010.88
2018-06-16T09:45:35.633Z,1010.93
2018-06-16T09:46:44.881Z,1010.91
2018-06-16T09:47:54.568Z,1010.92
2018-06-16T09:49:03.997Z,1010.95
2018-06-16T09:50:12.910Z,1010.93
2018-06-16T09:51:22.591Z,1010.98
2018-06-16T09:52:32.278Z,1010.94
2018-06-16T09:53:41.958Z,1010.96
2018-06-16T09:54:51.398Z,1010.94
2018-06-16T09:56:00.330Z,1010.95
2018-06-16T09:57:09.753Z,1010.98
2018-06-16T09:58:19.178Z,1010.95
2018-06-16T09:59:28.607Z,1010.97
2018-06-16T10:00:38.050Z,1010.94
2018-06-16T10:01:47.251Z,1010.92
2018-06-16T10:02:57.193Z,1010.92
2018-06-16T10:04:07.016Z,1010.93
2018-06-16T10:05:16.177Z,1010.9
2018-06-16T10:06:25.622Z,1010.91
2018-06-16T10:07:34.674Z,1010.91
2018-06-16T10:08:44.349Z,1010.86
2018-06-16T10:09:54.253Z,1010.86
2018-06-16T10:11:04.023Z,1010.88
2018-06-16T10:12:13.476Z,1010.85
2018-06-16T10:13:22.675Z,1010.85
2018-06-16T10:14:32.271Z,1010.81
2018-06-16T10:15:41.715Z,1010.81
2018-06-16T10:16:50.907Z,1010.84
2018-06-16T10:18:00.474Z,1010.8
2018-06-16T10:19:09.531Z,1010.79
2018-06-16T10:20:19.212Z,1010.76
2018-06-16T10:21:29.147Z,1010.8
2018-06-16T10:22:38.605Z,1010.8
2018-06-16T10:23:48.064Z,1010.77
2018-06-16T10:24:57.287Z,1010.75
2018-06-16T10:26:06.353Z,1010.77
2018-06-16T10:27:15.871Z,1010.75
2018-06-16T10:28:25.079Z,1010.75
2018-06-16T10:29:34.310Z,1010.73
2018-06-16T10:30:43.776Z,1010.73
2018-06-16T10:31:53.248Z,1010.72
2018-06-16T10:33:03.387Z,1010.69
2018-06-16T10:34:12.792Z,1010.67
2018-06-16T10:35:21.741Z,1010.7
2018-06-16T10:36:30.970Z,1010.66
2018-06-16T10:37:40.662Z,1010.62
2018-06-16T10:38:50.202Z,1010.64
2018-06-16T10:39:59.830Z,1010.63
2018-06-16T10:41:09.355Z,1010.63
2018-06-16T10:42:18.550Z,1010.6
2018-06-16T10:43:27.721Z,1010.6
2018-06-16T10:44:37.480Z,1010.62
2018-06-16T10:45:46.930Z,1010.62
2018-06-16T10:46:56.884Z,1010.64
2018-06-16T10:48:06.737Z,1010.63
2018-06-16T10:49:16.176Z,1010.63
2018-06-16T10:50:25.645Z,1010.59
2018-06-16T10:51:35.221Z,1010.55
2018-06-16T10:52:45.216Z,1010.55
2018-06-16T10:53:54.411Z,1010.61
2018-06-16T10:55:03.919Z,1010.57
2018-06-16T10:56:13.413Z,1010.55
2018-06-16T10:57:23.374Z,1010.55
2018-06-16T10:58:33.326Z,1010.56
2018-06-16T10:59:43.317Z,1010.58
2018-06-16T11:00:52.556Z,1010.58
2018-06-16T11:02:01.524Z,1010.61
2018-06-16T11:03:10.758Z,1010.61
2018-06-16T11:04:19.986Z,1010.6
2018-06-16T11:05:28.967Z,1010.62
2018-06-16T11:06:38.385Z,1010.6
2018-06-16T11:07:48.090Z,1010.58
2018-06-16T11:08:57.870Z,1010.57
2018-06-16T11:10:07.326Z,1010.59
2018-06-16T11:11:16.606Z,1010.57
2018-06-16T11:12:26.248Z,1010.58
2018-06-16T11:13:35.686Z,1010.55
2018-06-16T11:14:45.402Z,1010.56
2018-06-16T11:15:54.701Z,1010.52
2018-06-16T11:17:04.480Z,1010.56
2018-06-16T11:18:13.969Z,1010.5
2018-06-16T11:19:23.444Z,1010.48
2018-06-16T11:20:33.171Z,1010.47
2018-06-16T11:21:42.661Z,1010.47
2018-06-16T11:22:51.886Z,1010.47
2018-06-16T11:24:01.098Z,1010.49
2018-06-16T11:25:10.784Z,1010.5
2018-06-16T11:26:20.238Z,1010.48
2018-06-16T11:27:29.731Z,1010.49
2018-06-16T11:28:38.943Z,1010.45
2018-06-16T11:29:48.136Z,1010.45
2018-06-16T11:30:57.589Z,1010.45
2018-06-16T11:32:07.522Z,1010.46
2018-06-16T11:33:17.293Z,1010.41
2018-06-16T11:34:27.117Z,1010.42
2018-06-16T11:35:36.116Z,1010.4
2018-06-16T11:36:45.060Z,1010.42
2018-06-16T11:37:54.830Z,1010.36
2018-06-16T11:39:04.659Z,1010.33
2018-06-16T11:40:15.461Z,1010.31
2018-06-16T11:41:24.438Z,1010.33
2018-06-16T11:42:33.630Z,1010.34
2018-06-16T11:43:42.896Z,1010.28
2018-06-16T11:44:52.090Z,1010.3
2018-06-16T11:46:01.559Z,1010.29
2018-06-16T11:47:10.539Z,1010.26
2018-06-16T11:48:20.330Z,1010.23
2018-06-16T11:49:29.759Z,1010.21
2018-06-16T11:50:39.648Z,1010.23
2018-06-16T11:51:49.376Z,1010.24
2018-06-16T11:52:58.559Z,1010.22
2018-06-16T11:54:07.801Z,1010.16
2018-06-16T11:55:17.027Z,1010.18
2018-06-16T11:56:26.775Z,1010.17
2018-06-16T11:57:36.568Z,1010.14
2018-06-16T11:58:47.005Z,1010.13
2018-06-16T11:59:56.507Z,1010.15
2018-06-16T12:01:05.425Z,1010.11
2018-06-16T12:02:15.155Z,1010.13
2018-06-16T12:03:25.126Z,1010.1
2018-06-16T12:04:34.699Z,1010.03
2018-06-16T12:05:44.277Z,1010
2018-06-16T12:06:53.893Z,1010.02
2018-06-16T12:08:03.632Z,1009.95
2018-06-16T12:09:12.354Z,1009.95
2018-06-16T12:10:22.006Z,1009.94
2018-06-16T12:11:31.524Z,1009.91
2018-06-16T12:12:40.959Z,1009.93
2018-06-16T12:13:50.550Z,1009.9
2018-06-16T12:15:00.226Z,1009.89
2018-06-16T12:16:09.447Z,1009.89
2018-06-16T12:17:18.626Z,1009.92
2018-06-16T12:18:28.609Z,1009.9
2018-06-16T12:19:38.088Z,1009.92
2018-06-16T12:20:47.079Z,1009.92
2018-06-16T12:21:56.784Z,1009.9
2018-06-16T12:23:05.433Z,1009.86
2018-06-16T12:24:15.440Z,1009.82
2018-06-16T12:25:24.350Z,1009.79
2018-06-16T12:26:33.675Z,1009.86
2018-06-16T12:27:43.433Z,1009.76
2018-06-16T12:28:52.895Z,1009.79
2018-06-16T12:30:02.205Z,1009.72
2018-06-16T12:31:11.717Z,1009.73
2018-06-16T12:32:20.921Z,1009.75
2018-06-16T12:33:30.362Z,1009.72
2018-06-16T12:34:39.789Z,1009.74
2018-06-16T12:35:49.031Z,1009.75
2018-06-16T12:36:58.581Z,1009.75
2018-06-16T12:38:08.852Z,1009.72
2018-06-16T12:39:18.405Z,1009.71
2018-06-16T12:40:27.875Z,1009.7
2018-06-16T12:41:37.368Z,1009.67
2018-06-16T12:42:47.450Z,1009.65
2018-06-16T12:43:56.664Z,1009.64
2018-06-16T12:45:06.413Z,1009.65
2018-06-16T12:46:16.120Z,1009.67
2018-06-16T12:47:26.303Z,1009.66
2018-06-16T12:48:36.081Z,1009.66
2018-06-16T12:49:45.517Z,1009.67
2018-06-16T12:50:54.757Z,1009.64
2018-06-16T12:52:04.501Z,1009.66
2018-06-16T12:53:14.388Z,1009.65
2018-06-16T12:54:23.294Z,1009.67
2018-06-16T12:55:32.722Z,1009.64
2018-06-16T12:56:41.823Z,1009.66
2018-06-16T12:57:51.553Z,1009.67
2018-06-16T12:59:01.199Z,1009.69
2018-06-16T13:00:10.357Z,1009.69
2018-06-16T13:01:20.051Z,1009.7
2018-06-16T13:02:29.585Z,1009.67
2018-06-16T13:03:38.778Z,1009.67
2018-06-16T13:04:47.987Z,1009.63
2018-06-16T13:05:57.402Z,1009.63
2018-06-16T13:07:07.093Z,1009.63
2018-06-16T13:08:16.601Z,1009.63
2018-06-16T13:09:26.137Z,1009.65
2018-06-16T13:10:35.685Z,1009.61
2018-06-16T13:11:44.900Z,1009.59
2018-06-16T13:12:54.381Z,1009.63
2018-06-16T13:14:03.320Z,1009.57
2018-06-16T13:15:12.498Z,1009.57
2018-06-16T13:16:21.473Z,1009.61
2018-06-16T13:17:30.756Z,1009.61
2018-06-16T13:18:40.182Z,1009.57
2018-06-16T13:19:49.664Z,1009.55
2018-06-16T13:20:59.026Z,1009.6
2018-06-16T13:22:08.198Z,1009.6
2018-06-16T13:23:17.902Z,1009.59
2018-06-16T13:24:27.634Z,1009.57
2018-06-16T13:25:37.062Z,1009.61
2018-06-16T13:26:46.853Z,1009.55
2018-06-16T13:27:56.051Z,1009.61
2018-06-16T13:29:05.015Z,1009.6
2018-06-16T13:30:14.977Z,1009.59
2018-06-16T13:31:24.209Z,1009.61
2018-06-16T13:32:33.461Z,1009.62
2018-06-16T13:33:43.209Z,1009.61
2018-06-16T13:34:53.079Z,1009.62
2018-06-16T13:36:02.524Z,1009.66
2018-06-16T13:37:11.960Z,1009.62
2018-06-16T13:38:21.418Z,1009.6
2018-06-16T13:39:30.944Z,1009.57
2018-06-16T13:40:40.420Z,1009.6
2018-06-16T13:41:49.871Z,1009.58
2018-06-16T13:42:59.370Z,1009.53
2018-06-16T13:44:08.567Z,1009.57
2018-06-16T13:45:17.857Z,1009.51
2018-06-16T13:46:27.864Z,1009.51
2018-06-16T13:47:37.337Z,1009.51
2018-06-16T13:48:47.027Z,1009.45
2018-06-16T13:49:56.276Z,1009.44
2018-06-16T13:51:05.720Z,1009.35
2018-06-16T13:52:14.888Z,1009.36
2018-06-16T13:53:24.606Z,1009.34
2018-06-16T13:54:33.843Z,1009.35
2018-06-16T13:55:43.288Z,1009.35
2018-06-16T13:56:52.478Z,1009.34
2018-06-16T13:58:02.012Z,1009.35
2018-06-16T13:59:11.489Z,1009.34
2018-06-16T14:00:20.911Z,1009.4
2018-06-16T14:01:30.371Z,1009.4
2018-06-16T14:02:39.551Z,1009.38
2018-06-16T14:03:49.103Z,1009.4